Salem, Oregon
Current Conditions -  °F | °C
As of 9:56 AM on Saturday 25 Oct 2014 (Local Time) from KSLE Reporting Station
Overcast Overcast  
Wind Chill: 56°   Ceiling: 8000
Heat Index: 56°   Visibility: 10mi
Dew Point: 52°   Wind: 9mph
Humidity: 87%   Direction: 360°N
Pressure: 29.4"   Gusts: NA
Location:  44.93°N, 123.04°W
Report Text: KSLE 251656Z 36008KT 10SM FEW007 OVC080 13/11 A2940 RMK AO2 SLP954 T01330111
Loading
Personal Weather Stations






























Interactive Weather Map
Tropical Storm Tracking
New forecast layout! Learn more

10-Day Weather Forecast

Advertisements
Track Severe Weather on mobile